createdAt,value
2018-01-07T00:01:32.083Z,99.90
2018-01-07T00:03:59.701Z,99.90
2018-01-07T00:06:27.349Z,99.90
2018-01-07T00:08:55.190Z,99.90
2018-01-07T00:11:24.953Z,99.90
2018-01-07T00:13:52.625Z,99.90
2018-01-07T00:16:21.018Z,99.90
2018-01-07T00:18:48.712Z,99.90
2018-01-07T00:21:16.330Z,99.90
2018-01-07T00:23:46.424Z,99.90
2018-01-07T00:26:14.161Z,99.90
2018-01-07T00:28:41.774Z,99.90
2018-01-07T00:31:09.417Z,99.90
2018-01-07T00:33:37.059Z,99.90
2018-01-07T00:36:04.674Z,99.90
2018-01-07T00:38:32.325Z,99.90
2018-01-07T00:40:59.954Z,99.90
2018-01-07T00:43:28.368Z,99.90
2018-01-07T00:45:55.986Z,99.90
2018-01-07T00:48:23.596Z,99.90
2018-01-07T00:50:52.014Z,99.90
2018-01-07T00:53:19.629Z,99.90
2018-01-07T00:55:47.272Z,99.90
2018-01-07T00:58:14.885Z,99.90
2018-01-07T01:00:42.507Z,99.90
2018-01-07T01:03:10.158Z,99.90
2018-01-07T01:05:38.547Z,99.90
2018-01-07T01:08:06.956Z,99.90
2018-01-07T01:10:34.570Z,99.90
2018-01-07T01:13:02.202Z,99.90
2018-01-07T01:15:29.884Z,99.90
2018-01-07T01:17:57.498Z,99.90
2018-01-07T01:20:25.145Z,99.90
2018-01-07T01:22:52.758Z,99.90
2018-01-07T01:25:20.374Z,99.90
2018-01-07T01:27:48.024Z,99.90
2018-01-07T01:30:15.637Z,99.90
2018-01-07T01:32:43.289Z,99.90
2018-01-07T01:35:11.675Z,99.90
2018-01-07T01:37:40.058Z,99.90
2018-01-07T01:40:07.702Z,99.90
2018-01-07T01:42:35.331Z,99.90
2018-01-07T01:45:02.981Z,99.90
2018-01-07T01:47:31.371Z,99.90
2018-01-07T01:49:58.982Z,99.90
2018-01-07T01:52:26.625Z,99.90
2018-01-07T01:54:55.009Z,99.90
2018-01-07T01:57:23.315Z,99.90
2018-01-07T01:59:51.702Z,99.90
2018-01-07T02:02:20.085Z,99.90
2018-01-07T02:04:48.501Z,99.90
2018-01-07T02:07:16.121Z,99.90
2018-01-07T02:09:43.764Z,99.90
2018-01-07T02:12:11.381Z,99.90
2018-01-07T02:14:38.993Z,99.90
2018-01-07T02:17:06.645Z,99.90
2018-01-07T02:19:34.258Z,99.90
2018-01-07T02:22:01.905Z,99.90
2018-01-07T02:24:30.280Z,99.90
2018-01-07T02:26:57.901Z,99.90
2018-01-07T02:29:25.550Z,99.90
2018-01-07T02:31:53.933Z,99.90
2018-01-07T02:34:21.605Z,99.90
2018-01-07T02:36:49.981Z,99.90
2018-01-07T02:39:17.595Z,99.90
2018-01-07T02:41:45.242Z,99.90
2018-01-07T02:44:13.625Z,99.90
2018-01-07T02:46:41.288Z,99.90
2018-01-07T02:49:08.910Z,99.90
2018-01-07T02:51:36.546Z,99.90
2018-01-07T02:54:04.186Z,99.90
2018-01-07T02:56:31.810Z,99.90
2018-01-07T02:59:00.221Z,99.90
2018-01-07T03:01:27.845Z,99.90
2018-01-07T03:03:55.912Z,99.90
2018-01-07T03:06:23.553Z,99.90
2018-01-07T03:08:51.167Z,99.90
2018-01-07T03:11:18.808Z,99.90
2018-01-07T03:13:46.422Z,99.90
2018-01-07T03:16:14.038Z,99.90
2018-01-07T03:18:42.449Z,99.90
2018-01-07T03:21:10.063Z,99.90
2018-01-07T03:23:37.706Z,99.90
2018-01-07T03:26:05.323Z,99.90
2018-01-07T03:28:32.941Z,99.90
2018-01-07T03:31:00.588Z,99.90
2018-01-07T03:33:28.968Z,99.90
2018-01-07T03:35:56.613Z,99.90
2018-01-07T03:38:24.226Z,99.90
2018-01-07T03:40:52.608Z,99.90
2018-01-07T03:43:20.262Z,99.90
2018-01-07T03:45:47.873Z,99.90
2018-01-07T03:48:16.282Z,99.90
2018-01-07T03:50:43.905Z,99.90
2018-01-07T03:53:11.534Z,99.90
2018-01-07T03:55:39.174Z,99.90
2018-01-07T03:58:06.789Z,99.90
2018-01-07T04:00:34.434Z,99.90
2018-01-07T04:03:02.849Z,99.90
2018-01-07T04:05:30.462Z,99.90
2018-01-07T04:07:58.110Z,99.90
2018-01-07T04:10:25.716Z,99.90
2018-01-07T04:12:53.366Z,99.90
2018-01-07T04:15:21.009Z,99.90
2018-01-07T04:17:48.619Z,99.90
2018-01-07T04:20:16.262Z,99.90
2018-01-07T04:22:43.877Z,99.90
2018-01-07T04:25:11.490Z,99.90
2018-01-07T04:27:39.899Z,99.90
2018-01-07T04:30:07.514Z,99.90
2018-01-07T04:32:35.130Z,99.90
2018-01-07T04:35:02.784Z,99.90
2018-01-07T04:37:30.407Z,99.90
2018-01-07T04:39:58.017Z,99.90
2018-01-07T04:42:25.665Z,99.90
2018-01-07T04:44:53.273Z,99.90
2018-01-07T04:47:20.893Z,99.90
2018-01-07T04:49:48.538Z,99.90
2018-01-07T04:52:16.153Z,99.90
2018-01-07T04:54:43.769Z,99.90
2018-01-07T04:57:11.423Z,99.90
2018-01-07T04:59:40.482Z,99.90
2018-01-07T05:02:08.862Z,99.90
2018-01-07T05:04:37.276Z,99.90
2018-01-07T05:07:04.892Z,99.90
2018-01-07T05:09:32.505Z,99.90
2018-01-07T05:12:00.921Z,99.90
2018-01-07T05:14:28.561Z,99.90
2018-01-07T05:16:56.205Z,99.90
2018-01-07T05:19:23.854Z,99.90
2018-01-07T05:21:51.470Z,99.90
2018-01-07T05:24:19.113Z,99.90
2018-01-07T05:26:46.725Z,99.90
2018-01-07T05:29:14.345Z,99.90
2018-01-07T05:31:41.993Z,99.90
2018-01-07T05:34:10.382Z,99.90
2018-01-07T05:36:38.781Z,99.90
2018-01-07T05:39:07.205Z,99.90
2018-01-07T05:41:34.833Z,99.90
2018-01-07T05:44:03.218Z,99.90
2018-01-07T05:46:30.893Z,99.90
2018-01-07T05:48:58.523Z,99.90
2018-01-07T05:51:26.148Z,99.90
2018-01-07T05:53:54.570Z,99.90
2018-01-07T05:56:22.201Z,99.90
2018-01-07T05:58:49.834Z,99.90
2018-01-07T06:01:17.473Z,99.90
2018-01-07T06:03:45.855Z,99.90
2018-01-07T06:06:14.237Z,99.90
2018-01-07T06:08:41.959Z,99.90
2018-01-07T06:11:09.589Z,99.90
2018-01-07T06:13:38.019Z,99.90
2018-01-07T06:16:05.661Z,99.90
2018-01-07T06:18:33.297Z,99.90
2018-01-07T06:21:00.901Z,99.90
2018-01-07T06:23:28.605Z,99.90
2018-01-07T06:25:56.986Z,99.90
2018-01-07T06:28:25.360Z,99.90
2018-01-07T06:30:53.012Z,99.90
2018-01-07T06:33:20.633Z,99.90
2018-01-07T06:35:49.042Z,99.90
2018-01-07T06:38:16.689Z,99.90
2018-01-07T06:40:44.310Z,99.90
2018-01-07T06:43:11.931Z,99.90
2018-01-07T06:45:39.570Z,99.90
2018-01-07T06:48:07.177Z,99.90
2018-01-07T06:50:34.778Z,99.90
2018-01-07T06:53:02.413Z,99.90
2018-01-07T06:55:30.034Z,99.90
2018-01-07T06:57:57.650Z,99.90
2018-01-07T07:00:25.311Z,99.90
2018-01-07T07:02:52.925Z,99.90
2018-01-07T07:05:21.327Z,99.90
2018-01-07T07:07:49.743Z,99.90
2018-01-07T07:10:17.349Z,99.90
2018-01-07T07:12:44.959Z,99.90
2018-01-07T07:15:12.633Z,99.90
2018-01-07T07:17:41.001Z,99.90
2018-01-07T07:20:08.618Z,99.90
2018-01-07T07:22:36.258Z,99.90
2018-01-07T07:25:03.863Z,99.90
2018-01-07T07:27:32.235Z,99.90
2018-01-07T07:30:00.637Z,99.90
2018-01-07T07:32:29.017Z,99.90
2018-01-07T07:34:56.630Z,99.90
2018-01-07T07:37:24.267Z,99.90
2018-01-07T07:39:52.643Z,99.90
2018-01-07T07:42:20.250Z,99.90
2018-01-07T07:44:47.891Z,99.90
2018-01-07T07:47:15.505Z,99.90
2018-01-07T07:49:43.523Z,99.90
2018-01-07T07:52:11.160Z,99.90
2018-01-07T07:54:38.774Z,99.90
2018-01-07T07:57:06.373Z,99.90
2018-01-07T07:59:34.008Z,99.90
2018-01-07T08:02:01.614Z,99.90
2018-01-07T08:04:29.217Z,99.90
2018-01-07T08:06:57.629Z,99.90
2018-01-07T08:09:25.241Z,99.90
2018-01-07T08:11:52.857Z,99.90
2018-01-07T08:14:21.277Z,99.90
2018-01-07T08:16:48.895Z,99.90
2018-01-07T08:19:16.500Z,99.90
2018-01-07T08:21:44.911Z,99.90
2018-01-07T08:24:12.522Z,99.90
2018-01-07T08:26:40.132Z,99.90
2018-01-07T08:29:08.546Z,99.90
2018-01-07T08:31:36.153Z,99.90
2018-01-07T08:34:03.757Z,99.90
2018-01-07T08:36:31.399Z,99.90
2018-01-07T08:38:59.002Z,99.90
2018-01-07T08:41:26.616Z,99.90
2018-01-07T08:43:54.262Z,99.90
2018-01-07T08:46:22.634Z,99.90
2018-01-07T08:48:50.241Z,99.90
2018-01-07T08:51:17.936Z,99.90
2018-01-07T08:53:45.537Z,99.90
2018-01-07T08:56:13.137Z,99.90
2018-01-07T08:58:40.774Z,99.90
2018-01-07T09:01:08.376Z,99.90
2018-01-07T09:03:36.035Z,99.90
2018-01-07T09:06:03.665Z,99.90
2018-01-07T09:08:31.294Z,99.90
2018-01-07T09:10:58.934Z,99.90
2018-01-07T09:13:26.543Z,99.90
2018-01-07T09:15:54.146Z,99.90
2018-01-07T09:18:22.561Z,99.90
2018-01-07T09:20:50.166Z,99.90
2018-01-07T09:23:17.801Z,99.90
2018-01-07T09:25:45.422Z,99.90
2018-01-07T09:28:13.033Z,99.90
2018-01-07T09:30:41.446Z,99.90
2018-01-07T09:33:09.046Z,99.90
2018-01-07T09:35:36.685Z,99.90
2018-01-07T09:38:04.678Z,99.90
2018-01-07T09:40:32.283Z,99.90
2018-01-07T09:42:59.922Z,99.90
2018-01-07T09:45:27.532Z,99.90
2018-01-07T09:47:55.421Z,99.90
2018-01-07T09:50:23.097Z,99.90
2018-01-07T09:52:50.909Z,99.90
2018-01-07T09:55:18.853Z,99.90
2018-01-07T09:57:46.532Z,99.90
2018-01-07T10:00:14.161Z,99.90
2018-01-07T10:02:41.774Z,99.90
2018-01-07T10:05:09.379Z,99.90
2018-01-07T10:07:37.784Z,99.90
2018-01-07T10:10:05.388Z,99.90
2018-01-07T10:12:33.035Z,99.90
2018-01-07T10:15:00.646Z,99.90
2018-01-07T10:17:28.281Z,99.90
2018-01-07T10:19:55.958Z,99.90
2018-01-07T10:22:24.354Z,99.90
2018-01-07T10:24:52.023Z,99.90
2018-01-07T10:27:19.669Z,99.90
2018-01-07T10:29:47.288Z,99.90
2018-01-07T10:34:48.942Z,99.90
2018-01-07T10:37:16.616Z,99.90
2018-01-07T10:39:45.766Z,99.90
2018-01-07T10:42:14.152Z,99.90
2018-01-07T10:44:41.852Z,99.90
2018-01-07T10:47:09.481Z,99.90
2018-01-07T10:49:37.925Z,99.90
2018-01-07T10:52:05.644Z,99.90
2018-01-07T10:54:33.257Z,99.90
2018-01-07T10:57:00.982Z,99.90
2018-01-07T10:59:28.609Z,99.90
2018-01-07T11:01:57.508Z,99.90
2018-01-07T11:04:25.113Z,99.90
2018-01-07T11:06:52.760Z,99.90
2018-01-07T11:09:20.492Z,99.90
2018-01-07T11:11:48.118Z,99.90
2018-01-07T11:14:15.791Z,99.90
2018-01-07T11:16:43.498Z,99.90
2018-01-07T11:19:11.811Z,99.90
2018-01-07T11:21:40.299Z,99.90
2018-01-07T11:24:09.052Z,99.90
2018-01-07T11:26:36.869Z,99.90
2018-01-07T11:29:04.491Z,99.90
2018-01-07T11:31:32.131Z,99.90
2018-01-07T11:34:00.626Z,99.90
2018-01-07T11:36:29.000Z,99.90
2018-01-07T11:38:56.735Z,99.90
2018-01-07T11:41:24.450Z,99.90
2018-01-07T11:43:52.102Z,99.90
2018-01-07T11:46:19.784Z,99.90
2018-01-07T11:48:47.419Z,99.90
2018-01-07T11:51:15.103Z,99.90
2018-01-07T11:53:42.762Z,99.90
2018-01-07T11:56:11.146Z,99.90
2018-01-07T11:58:39.562Z,99.90
2018-01-07T12:01:07.301Z,99.90
2018-01-07T12:03:35.879Z,99.90
2018-01-07T12:06:03.607Z,99.90
2018-01-07T12:08:32.961Z,99.90
2018-01-07T12:11:00.665Z,99.90
2018-01-07T12:13:29.061Z,99.90
2018-01-07T12:15:57.574Z,99.90
2018-01-07T12:18:25.214Z,99.90
2018-01-07T12:20:53.804Z,99.90
2018-01-07T12:23:21.441Z,99.90
2018-01-07T12:25:49.070Z,99.90
2018-01-07T12:28:17.127Z,99.90
2018-01-07T12:30:45.907Z,99.90
2018-01-07T12:33:14.744Z,99.90
2018-01-07T12:35:42.397Z,99.90
2018-01-07T12:38:10.025Z,99.90
2018-01-07T12:40:38.460Z,99.90
2018-01-07T12:43:06.122Z,99.90
2018-01-07T12:45:33.752Z,99.90
2018-01-07T12:48:02.251Z,99.90
2018-01-07T12:50:29.917Z,99.90
2018-01-07T12:52:57.790Z,99.90
2018-01-07T12:55:26.217Z,99.90
2018-01-07T12:57:54.950Z,99.90
2018-01-07T13:00:23.416Z,99.90
2018-01-07T13:02:51.074Z,99.90
2018-01-07T13:05:19.370Z,99.90
2018-01-07T13:07:47.038Z,99.90
2018-01-07T13:10:15.514Z,99.90
2018-01-07T13:12:43.366Z,99.90
2018-01-07T13:15:10.992Z,99.90
2018-01-07T13:17:38.952Z,99.90
2018-01-07T13:20:06.590Z,99.90
2018-01-07T13:22:34.302Z,99.90
2018-01-07T13:25:02.716Z,99.90
2018-01-07T13:27:30.350Z,99.90
2018-01-07T13:29:58.022Z,99.90
2018-01-07T13:32:25.654Z,99.90
2018-01-07T13:34:53.316Z,99.90
2018-01-07T13:37:20.933Z,99.90
2018-01-07T13:39:48.563Z,99.90
2018-01-07T13:42:16.225Z,99.90
2018-01-07T13:44:44.662Z,99.90
2018-01-07T13:47:12.328Z,99.90
2018-01-07T13:49:39.959Z,99.90
2018-01-07T13:52:08.407Z,99.90
2018-01-07T13:54:42.609Z,99.90
2018-01-07T13:57:10.239Z,99.90
2018-01-07T13:59:41.466Z,99.90
2018-01-07T14:02:09.106Z,99.90
2018-01-07T14:04:36.737Z,99.90
2018-01-07T14:07:04.386Z,99.90
2018-01-07T14:09:32.033Z,99.90
2018-01-07T14:11:59.778Z,99.90
2018-01-07T14:14:27.437Z,99.90
2018-01-07T14:16:55.134Z,99.90
2018-01-07T14:19:23.565Z,99.90
2018-01-07T14:21:51.200Z,99.90
2018-01-07T14:24:18.850Z,99.90
2018-01-07T14:26:46.483Z,99.90
2018-01-07T14:29:14.121Z,99.90
2018-01-07T14:31:42.540Z,99.90
2018-01-07T14:34:10.165Z,99.90
2018-01-07T14:36:37.818Z,99.90
2018-01-07T14:39:05.465Z,99.90
2018-01-07T14:41:33.133Z,99.90
2018-01-07T14:44:00.794Z,99.90
2018-01-07T14:46:29.174Z,99.90
2018-01-07T14:48:57.598Z,99.90
2018-01-07T14:51:25.215Z,99.90
2018-01-07T14:53:52.847Z,99.90
2018-01-07T14:56:20.921Z,99.90
2018-01-07T14:58:48.540Z,99.90
2018-01-07T15:01:16.214Z,99.90
2018-01-07T15:03:43.836Z,99.90
2018-01-07T15:06:12.217Z,99.90
2018-01-07T15:08:40.639Z,99.90
2018-01-07T15:11:08.291Z,99.90
2018-01-07T15:13:35.941Z,99.90
2018-01-07T15:16:03.561Z,99.90
2018-01-07T15:18:31.181Z,99.90
2018-01-07T15:20:58.832Z,99.90
2018-01-07T15:23:26.445Z,99.90
2018-01-07T15:25:54.094Z,99.90
2018-01-07T15:28:21.711Z,99.90
2018-01-07T15:30:50.091Z,99.90
2018-01-07T15:33:18.518Z,99.90
2018-01-07T15:35:46.138Z,99.90
2018-01-07T15:38:13.881Z,99.90
2018-01-07T15:40:41.517Z,99.90
2018-01-07T15:43:09.905Z,99.90
2018-01-07T15:45:38.327Z,99.90
2018-01-07T15:48:05.945Z,99.90
2018-01-07T15:50:33.589Z,99.90
2018-01-07T15:53:01.243Z,99.90
2018-01-07T15:55:28.865Z,99.90
2018-01-07T15:57:56.516Z,99.90
2018-01-07T16:00:24.150Z,99.90
2018-01-07T16:02:52.562Z,99.90
2018-01-07T16:05:20.181Z,99.90
2018-01-07T16:07:47.841Z,99.90
2018-01-07T16:10:15.501Z,99.90
2018-01-07T16:12:43.117Z,99.90
2018-01-07T16:15:10.759Z,99.90
2018-01-07T16:17:38.383Z,99.90
2018-01-07T16:20:06.007Z,99.90
2018-01-07T16:22:33.650Z,99.90
2018-01-07T16:25:01.874Z,99.90
2018-01-07T16:27:29.521Z,99.90
2018-01-07T16:29:57.702Z,99.90
2018-01-07T16:32:25.333Z,99.90
2018-01-07T16:34:53.035Z,99.90
2018-01-07T16:37:21.409Z,99.90
2018-01-07T16:39:49.062Z,99.90
2018-01-07T16:42:16.678Z,99.90
2018-01-07T16:44:45.053Z,99.90
2018-01-07T16:47:12.740Z,99.90
2018-01-07T16:49:40.494Z,99.90
2018-01-07T16:52:08.138Z,99.90
2018-01-07T16:54:35.753Z,99.90
2018-01-07T16:57:04.136Z,99.90
2018-01-07T16:59:31.805Z,99.90
2018-01-07T17:01:59.509Z,99.90
2018-01-07T17:04:28.462Z,99.90
2018-01-07T17:06:56.082Z,99.90
2018-01-07T17:09:24.524Z,99.90
2018-01-07T17:11:52.187Z,99.90
2018-01-07T17:14:19.806Z,99.90
2018-01-07T17:16:47.447Z,99.90
2018-01-07T17:19:15.072Z,99.90
2018-01-07T17:21:43.453Z,99.90
2018-01-07T17:24:11.869Z,99.90
2018-01-07T17:26:39.486Z,99.90
2018-01-07T17:29:07.144Z,99.90
2018-01-07T17:31:34.768Z,99.90
2018-01-07T17:34:03.153Z,99.90
2018-01-07T17:36:30.801Z,99.90
2018-01-07T17:38:58.431Z,99.90
2018-01-07T17:41:26.078Z,99.90
2018-01-07T17:43:53.694Z,99.90
2018-01-07T17:46:21.309Z,99.90
2018-01-07T17:48:48.966Z,99.90
2018-01-07T17:51:16.582Z,99.90
2018-01-07T17:53:45.062Z,99.90
2018-01-07T17:56:12.649Z,99.90
2018-01-07T17:58:41.034Z,99.90
2018-01-07T18:01:08.687Z,99.90
2018-01-07T18:03:36.297Z,99.90
2018-01-07T18:06:04.736Z,99.90
2018-01-07T18:08:32.389Z,99.90
2018-01-07T18:11:00.019Z,99.90
2018-01-07T18:13:27.685Z,99.90
2018-01-07T18:15:55.322Z,99.90
2018-01-07T18:18:22.979Z,99.90
2018-01-07T18:20:50.598Z,99.90
2018-01-07T18:23:18.214Z,99.90
2018-01-07T18:25:46.631Z,99.90
2018-01-07T18:28:14.273Z,99.90
2018-01-07T18:30:42.686Z,99.90
2018-01-07T18:33:10.303Z,99.90
2018-01-07T18:35:37.926Z,99.90
2018-01-07T18:38:05.580Z,99.90
2018-01-07T18:40:33.960Z,99.90
2018-01-07T18:43:01.621Z,99.90
2018-01-07T18:45:29.242Z,99.90
2018-01-07T18:47:56.862Z,99.90
2018-01-07T18:50:24.508Z,99.90
2018-01-07T18:52:52.126Z,99.20
2018-01-07T18:55:19.781Z,99.90
2018-01-07T18:57:47.395Z,99.70
2018-01-07T19:00:15.803Z,99.90
2018-01-07T19:02:43.454Z,99.90
2018-01-07T19:05:11.069Z,99.60
2018-01-07T19:07:38.722Z,99.90
2018-01-07T19:10:06.346Z,99.90
2018-01-07T19:12:33.972Z,99.60
2018-01-07T19:15:01.630Z,99.00
2018-01-07T19:17:30.023Z,99.20
2018-01-07T19:19:58.462Z,99.60
2018-01-07T19:22:26.087Z,99.60
2018-01-07T19:24:54.475Z,99.20
2018-01-07T19:27:22.894Z,99.60
2018-01-07T19:29:50.518Z,99.60
2018-01-07T19:32:18.167Z,99.90
2018-01-07T19:34:45.814Z,99.50
2018-01-07T19:37:13.458Z,99.40
2018-01-07T19:39:41.105Z,99.00
2018-01-07T19:42:08.739Z,99.90
2018-01-07T19:44:36.397Z,98.80
2018-01-07T19:47:04.790Z,98.50
2018-01-07T19:49:33.184Z,97.90
2018-01-07T19:52:01.607Z,97.30
2018-01-07T19:54:29.220Z,97.30
2018-01-07T19:56:56.865Z,96.70
2018-01-07T19:59:24.481Z,97.40
2018-01-07T20:01:52.093Z,97.30
2018-01-07T20:04:20.845Z,97.80
2018-01-07T20:06:53.652Z,96.90
2018-01-07T20:09:22.482Z,97.00
2018-01-07T20:11:51.049Z,96.90
2018-01-07T20:14:25.111Z,96.80
2018-01-07T20:16:52.741Z,96.80
2018-01-07T20:19:20.379Z,94.60
2018-01-07T20:21:48.075Z,95.70
2018-01-07T20:24:15.871Z,96.40
2018-01-07T20:26:43.669Z,96.70
2018-01-07T20:29:12.054Z,97.70
2018-01-07T20:31:40.446Z,97.90
2018-01-07T20:34:08.869Z,97.60
2018-01-07T20:36:36.486Z,97.60
2018-01-07T20:39:04.128Z,97.30
2018-01-07T20:41:31.750Z,95.70
2018-01-07T20:43:59.381Z,95.50
2018-01-07T20:46:27.030Z,97.00
2018-01-07T20:48:54.657Z,96.90
2018-01-07T20:51:22.319Z,97.50
2018-01-07T20:53:49.967Z,97.80
2018-01-07T20:56:17.593Z,97.50
2018-01-07T20:58:45.245Z,97.40
2018-01-07T21:01:12.908Z,97.90
2018-01-07T21:03:40.565Z,98.30
2018-01-07T21:06:08.192Z,97.90
2018-01-07T21:08:35.928Z,97.30
2018-01-07T21:11:03.624Z,97.90
2018-01-07T21:13:31.285Z,97.80
2018-01-07T21:15:58.948Z,98.60
2018-01-07T21:18:26.568Z,98.10
2018-01-07T21:20:55.022Z,98.70
2018-01-07T21:23:22.682Z,98.60
2018-01-07T21:25:50.362Z,98.50
2018-01-07T21:28:18.019Z,98.70
2018-01-07T21:30:45.648Z,98.40
2018-01-07T21:33:13.303Z,98.50
2018-01-07T21:35:40.962Z,98.00
2018-01-07T21:38:08.585Z,99.00
2018-01-07T21:40:37.004Z,98.40
2018-01-07T21:43:04.625Z,98.40
2018-01-07T21:45:32.273Z,98.60
2018-01-07T21:47:59.901Z,99.20
2018-01-07T21:50:28.296Z,99.20
2018-01-07T21:52:56.773Z,99.00
2018-01-07T21:55:24.413Z,99.60
2018-01-07T21:57:52.126Z,99.60
2018-01-07T22:00:40.510Z,99.00
2018-01-07T22:03:19.967Z,98.00
2018-01-07T22:05:54.941Z,98.20
2018-01-07T22:08:26.573Z,98.00
2018-01-07T22:10:55.434Z,98.50
2018-01-07T22:13:23.094Z,99.00
2018-01-07T22:15:50.748Z,98.70
2018-01-07T22:18:18.363Z,98.20
2018-01-07T22:20:46.671Z,97.60
2018-01-07T22:23:18.339Z,98.40
2018-01-07T22:25:46.281Z,98.90
2018-01-07T22:28:15.575Z,98.90
2018-01-07T22:30:50.325Z,98.50
2018-01-07T22:33:18.463Z,99.30
2018-01-07T22:35:46.881Z,98.50
2018-01-07T22:38:14.570Z,98.50
2018-01-07T22:40:42.196Z,98.20
2018-01-07T22:43:09.850Z,98.40
2018-01-07T22:45:41.096Z,99.30
2018-01-07T22:48:09.451Z,98.50
2018-01-07T22:50:37.126Z,98.50
2018-01-07T22:53:05.505Z,99.30
2018-01-07T22:55:34.121Z,98.60
2018-01-07T22:58:02.019Z,98.60
2018-01-07T23:00:29.698Z,97.80
2018-01-07T23:02:57.318Z,97.70
2018-01-07T23:05:24.949Z,98.40
2018-01-07T23:07:52.607Z,98.30
2018-01-07T23:10:20.243Z,98.40
2018-01-07T23:12:47.928Z,98.30
2018-01-07T23:15:15.571Z,97.50
2018-01-07T23:17:43.205Z,98.00
2018-01-07T23:20:10.870Z,97.70
2018-01-07T23:22:39.273Z,98.40
2018-01-07T23:25:08.306Z,98.40
2018-01-07T23:27:37.162Z,98.20
2018-01-07T23:30:05.542Z,99.30
2018-01-07T23:32:33.196Z,99.30
2018-01-07T23:35:00.817Z,98.90
2018-01-07T23:37:28.466Z,99.10
2018-01-07T23:39:56.866Z,98.80
2018-01-07T23:42:25.276Z,98.80
2018-01-07T23:44:52.925Z,98.80
2018-01-07T23:47:20.548Z,99.50
2018-01-07T23:49:48.193Z,99.30
2018-01-07T23:52:16.575Z,99.50
2018-01-07T23:54:44.973Z,99.20
2018-01-07T23:57:12.634Z,99.30
2018-01-07T23:59:41.021Z,99.60
